Terminal Aerodrome Forecast
Issued by NWS Sioux Falls, SD

Home | Current Version | Previous Version | Graphics & Text | Print | Product List | Glossary Off
Versions: 1 2 3 4 5 6 7 8 9 10 11 12 13 14 15 16 17 18 19 20 21 22

000
FTUS43 KFSD 242011 AAA
TAFHON
TAF AMD
KHON 242011Z 2420/2518 30014G20KT P6SM SCT045 SCT200
     FM250000 33013KT P6SM SCT110
     FM250700 35011KT P6SM BKN060
     FM251000 36011KT P6SM BKN030=

USA.gov is the U.S. government's official web portal to all federal, state and local government web resources and services.